This is the latest recevied weather packets stored in our database for station/object SP9INZ-13. If no packets are shown the sender has not sent any weather packets the latest 10 day(s).
| Time | Temp. | Humidity | Pressure | Rain* | Wind** | Luminosity | Snow |
|---|---|---|---|---|---|---|---|
| 1778093124 | 21.67° C | 58% | 1005.1 hPa | - | - | - | - |
| 1778092165 | 21.67° C | 58% | 1005 hPa | - | - | - | - |
| 1778091208 | 21.67° C | 59% | 1004.9 hPa | - | - | - | - |
| 1778090249 | 23.89° C | 55% | 1004.2 hPa | - | - | - | - |
| 1778089291 | 23.89° C | 57% | 1003.9 hPa | - | - | - | - |
| 1778088333 | 25° C | 51% | 1004.3 hPa | - | - | - | - |
| 1778087375 | 22.78° C | 56% | 1004.9 hPa | - | - | - | - |
| 1778086418 | 22.78° C | 55% | 1004.8 hPa | - | - | - | - |
| 1778085459 | 22.78° C | 61% | 1003.6 hPa | - | - | - | - |
| 1778084724 | 21.67° C | 51% | 1006.3 hPa | - | - | - | - |
| 1778084501 | 21.67° C | 51% | 1006.3 hPa | - | - | - | - |
| 1778083544 | 21.67° C | 50% | 1007 hPa | - | - | - | - |
| 1778082585 | 22.78° C | 49% | 1006.5 hPa | - | - | - | - |
| 1778081627 | 23.33° C | 48% | 1006.5 hPa | - | - | - | - |
| 1778080669 | 25° C | 40% | 1006.6 hPa | - | - | - | - |
| 1778079711 | 25° C | 40% | 1006.4 hPa | - | - | - | - |
| 1778078753 | 27.78° C | 35% | 1005.7 hPa | - | - | - | - |
| 1778077795 | 25.56° C | 37% | 1006.6 hPa | - | - | - | - |
| 1778076838 | 26.11° C | 37% | 1006.3 hPa | - | - | - | - |
| 1778075879 | 26.67° C | 36% | 1006.3 hPa | - | - | - | - |
| 1778074921 | 26.67° C | 38% | 1006 hPa | - | - | - | - |
| 1778073963 | 25.56° C | 39% | 1006.6 hPa | - | - | - | - |
| 1778073005 | 24.44° C | 43% | 1006.6 hPa | - | - | - | - |
| 1778072047 | 24.44° C | 44% | 1006.8 hPa | - | - | - | - |
| 1778071089 | 25° C | 42% | 1006.6 hPa | - | - | - | - |
* Rain since midnight (hover to see other rain measurements)
** Current wind speed in m/s (hover to see current wind gust speed)